sensor_id;sensor_type;location;lat;lon;timestamp;pressure;altitude;pressure_sealevel;temperature;humidity
68197;BME280;55019;49.382;11.358;2023-12-20T00:00:59;96511.84;;;2.60;100.00
68197;BME280;55019;49.382;11.358;2023-12-20T00:03:25;96501.78;;;2.69;100.00
68197;BME280;55019;49.382;11.358;2023-12-20T00:05:50;96503.03;;;2.64;100.00
68197;BME280;55019;49.382;11.358;2023-12-20T00:08:16;96495.38;;;2.64;100.00
68197;BME280;55019;49.382;11.358;2023-12-20T00:10:45;96493.88;;;2.72;100.00
68197;BME280;55019;49.382;11.358;2023-12-20T00:13:11;96482.84;;;2.83;100.00
68197;BME280;55019;49.382;11.358;2023-12-20T00:15:37;96486.91;;;2.85;100.00
68197;BME280;55019;49.382;11.358;2023-12-20T00:18:02;96475.09;;;2.73;100.00
68197;BME280;55019;49.382;11.358;2023-12-20T00:20:28;96474.72;;;2.78;100.00
68197;BME280;55019;49.382;11.358;2023-12-20T00:22:57;96479.81;;;2.78;100.00
68197;BME280;55019;49.382;11.358;2023-12-20T00:25:24;96481.78;;;2.85;100.00
68197;BME280;55019;49.382;11.358;2023-12-20T00:27:50;96476.13;;;2.71;100.00
68197;BME280;55019;49.382;11.358;2023-12-20T00:30:16;96467.00;;;2.68;100.00
68197;BME280;55019;49.382;11.358;2023-12-20T00:32:42;96459.56;;;2.65;100.00
68197;BME280;55019;49.382;11.358;2023-12-20T00:35:13;96472.88;;;2.69;100.00
68197;BME280;55019;49.382;11.358;2023-12-20T00:37:39;96458.50;;;2.68;100.00
68197;BME280;55019;49.382;11.358;2023-12-20T00:40:07;96458.50;;;2.68;100.00
68197;BME280;55019;49.382;11.358;2023-12-20T00:42:33;96464.31;;;2.70;100.00
68197;BME280;55019;49.382;11.358;2023-12-20T00:44:59;96451.78;;;2.67;100.00
68197;BME280;55019;49.382;11.358;2023-12-20T00:47:26;96449.00;;;2.70;100.00
68197;BME280;55019;49.382;11.358;2023-12-20T00:49:52;96457.47;;;2.70;100.00
68197;BME280;55019;49.382;11.358;2023-12-20T00:52:18;96455.50;;;2.63;100.00
68197;BME280;55019;49.382;11.358;2023-12-20T00:54:44;96458.28;;;2.71;100.00
68197;BME280;55019;49.382;11.358;2023-12-20T00:57:10;96457.47;;;2.70;100.00
68197;BME280;55019;49.382;11.358;2023-12-20T00:59:35;96450.06;;;2.67;100.00
68197;BME280;55019;49.382;11.358;2023-12-20T01:02:01;96453.63;;;2.65;100.00
68197;BME280;55019;49.382;11.358;2023-12-20T01:04:27;96457.47;;;2.70;100.00
68197;BME280;55019;49.382;11.358;2023-12-20T01:06:53;96445.53;;;2.60;100.00
68197;BME280;55019;49.382;11.358;2023-12-20T01:09:19;96468.00;;;2.77;100.00
68197;BME280;55019;49.382;11.358;2023-12-20T01:11:45;96461.50;;;2.73;100.00
68197;BME280;55019;49.382;11.358;2023-12-20T01:14:14;96460.13;;;2.69;100.00
68197;BME280;55019;49.382;11.358;2023-12-20T01:16:39;96455.97;;;2.68;100.00
68197;BME280;55019;49.382;11.358;2023-12-20T01:19:05;96463.38;;;2.71;100.00
68197;BME280;55019;49.382;11.358;2023-12-20T01:21:31;96464.06;;;2.73;100.00
68197;BME280;55019;49.382;11.358;2023-12-20T01:23:56;96460.47;;;2.75;100.00
68197;BME280;55019;49.382;11.358;2023-12-20T01:26:22;96454.44;;;2.76;100.00
68197;BME280;55019;49.382;11.358;2023-12-20T01:28:48;96460.81;;;2.82;100.00
68197;BME280;55019;49.382;11.358;2023-12-20T01:31:13;96458.84;;;2.74;100.00
68197;BME280;55019;49.382;11.358;2023-12-20T01:33:39;96451.91;;;2.76;100.00
68197;BME280;55019;49.382;11.358;2023-12-20T01:36:07;96443.31;;;2.77;100.00
68197;BME280;55019;49.382;11.358;2023-12-20T01:38:38;96455.94;;;2.78;100.00
68197;BME280;55019;49.382;11.358;2023-12-20T01:41:04;96449.69;;;2.72;100.00
68197;BME280;55019;49.382;11.358;2023-12-20T01:43:30;96444.34;;;2.75;100.00
68197;BME280;55019;49.382;11.358;2023-12-20T01:45:57;96445.28;;;2.84;100.00
68197;BME280;55019;49.382;11.358;2023-12-20T01:48:24;96442.25;;;2.90;100.00
68197;BME280;55019;49.382;11.358;2023-12-20T01:50:53;96426.25;;;2.88;100.00
68197;BME280;55019;49.382;11.358;2023-12-20T01:53:21;96427.72;;;2.91;100.00
68197;BME280;55019;49.382;11.358;2023-12-20T01:55:47;96429.47;;;2.90;100.00
68197;BME280;55019;49.382;11.358;2023-12-20T01:58:14;96423.09;;;2.85;100.00
68197;BME280;55019;49.382;11.358;2023-12-20T02:00:40;96433.53;;;2.93;100.00
68197;BME280;55019;49.382;11.358;2023-12-20T02:03:06;96431.91;;;2.92;100.00
68197;BME280;55019;49.382;11.358;2023-12-20T02:05:34;96440.38;;;2.92;100.00
68197;BME280;55019;49.382;11.358;2023-12-20T02:08:00;96445.72;;;2.89;100.00
68197;BME280;55019;49.382;11.358;2023-12-20T02:10:27;96437.00;;;2.92;100.00
68197;BME280;55019;49.382;11.358;2023-12-20T02:12:53;96430.03;;;2.94;100.00
68197;BME280;55019;49.382;11.358;2023-12-20T02:15:18;96439.22;;;2.96;100.00
68197;BME280;55019;49.382;11.358;2023-12-20T02:17:46;96427.13;;;2.98;100.00
68197;BME280;55019;49.382;11.358;2023-12-20T02:20:12;96422.97;;;2.97;100.00
68197;BME280;55019;49.382;11.358;2023-12-20T02:22:38;96425.75;;;2.94;100.00
68197;BME280;55019;49.382;11.358;2023-12-20T02:25:04;96408.59;;;2.96;100.00
68197;BME280;55019;49.382;11.358;2023-12-20T02:27:30;96403.97;;;2.90;100.00
68197;BME280;55019;49.382;11.358;2023-12-20T02:29:56;96408.34;;;2.99;100.00
68197;BME280;55019;49.382;11.358;2023-12-20T02:32:22;96397.00;;;2.92;100.00
68197;BME280;55019;49.382;11.358;2023-12-20T02:34:53;96413.75;;;3.06;100.00
68197;BME280;55019;49.382;11.358;2023-12-20T02:37:19;96404.84;;;3.00;100.00
68197;BME280;55019;49.382;11.358;2023-12-20T02:39:50;96404.84;;;3.00;100.00
68197;BME280;55019;49.382;11.358;2023-12-20T02:42:16;96418.84;;;3.06;100.00
68197;BME280;55019;49.382;11.358;2023-12-20T02:44:42;96419.94;;;3.03;100.00
68197;BME280;55019;49.382;11.358;2023-12-20T02:47:07;96422.00;;;3.09;100.00
68197;BME280;55019;49.382;11.358;2023-12-20T02:49:34;96405.06;;;3.08;100.00
68197;BME280;55019;49.382;11.358;2023-12-20T02:52:00;96418.25;;;3.13;100.00
68197;BME280;55019;49.382;11.358;2023-12-20T02:54:25;96412.59;;;3.10;100.00
68197;BME280;55019;49.382;11.358;2023-12-20T02:56:51;96403.88;;;3.12;100.00
68197;BME280;55019;49.382;11.358;2023-12-20T02:59:17;96396.22;;;3.12;100.00
68197;BME280;55019;49.382;11.358;2023-12-20T03:01:46;96408.44;;;3.09;100.00
68197;BME280;55019;49.382;11.358;2023-12-20T03:04:12;96411.66;;;3.11;100.00
68197;BME280;55019;49.382;11.358;2023-12-20T03:06:38;96409.22;;;3.09;100.00
68197;BME280;55019;49.382;11.358;2023-12-20T03:09:04;96399.00;;;3.09;100.00
68197;BME280;55019;49.382;11.358;2023-12-20T03:11:30;96394.31;;;2.94;100.00
68197;BME280;55019;49.382;11.358;2023-12-20T03:13:56;96410.78;;;2.90;100.00
68197;BME280;55019;49.382;11.358;2023-12-20T03:16:22;96398.75;;;2.81;100.00
68197;BME280;55019;49.382;11.358;2023-12-20T03:18:49;96414.41;;;2.87;100.00
68197;BME280;55019;49.382;11.358;2023-12-20T03:21:14;96403.19;;;2.79;100.00
68197;BME280;55019;49.382;11.358;2023-12-20T03:23:40;96405.00;;;2.88;100.00
68197;BME280;55019;49.382;11.358;2023-12-20T03:26:07;96401.91;;;2.84;100.00
68197;BME280;55019;49.382;11.358;2023-12-20T03:28:34;96385.44;;;2.78;100.00
68197;BME280;55019;49.382;11.358;2023-12-20T03:31:00;96395.53;;;2.79;100.00
68197;BME280;55019;49.382;11.358;2023-12-20T03:33:25;96405.38;;;2.73;100.00
68197;BME280;55019;49.382;11.358;2023-12-20T03:35:51;96403.88;;;2.81;100.00
68197;BME280;55019;49.382;11.358;2023-12-20T03:38:17;96396.81;;;2.74;100.00
68197;BME280;55019;49.382;11.358;2023-12-20T03:40:42;96407.84;;;2.74;100.00
68197;BME280;55019;49.382;11.358;2023-12-20T03:43:09;96398.81;;;2.70;100.00
68197;BME280;55019;49.382;11.358;2023-12-20T03:45:35;96407.94;;;2.73;100.00
68197;BME280;55019;49.382;11.358;2023-12-20T03:48:02;96413.03;;;2.73;100.00
68197;BME280;55019;49.382;11.358;2023-12-20T03:50:29;96407.94;;;2.73;100.00
68197;BME280;55019;49.382;11.358;2023-12-20T03:52:54;96404.22;;;2.77;100.00
68197;BME280;55019;49.382;11.358;2023-12-20T03:55:20;96416.53;;;2.72;100.00
68197;BME280;55019;49.382;11.358;2023-12-20T03:57:46;96407.94;;;2.73;100.00
68197;BME280;55019;49.382;11.358;2023-12-20T04:00:12;96411.41;;;2.72;100.00
68197;BME280;55019;49.382;11.358;2023-12-20T04:02:39;96419.31;;;2.69;100.00
68197;BME280;55019;49.382;11.358;2023-12-20T04:05:06;96422.31;;;2.74;100.00
68197;BME280;55019;49.382;11.358;2023-12-20T04:07:32;96420.13;;;2.69;100.00
68197;BME280;55019;49.382;11.358;2023-12-20T04:09:58;96413.03;;;2.73;100.00
68197;BME280;55019;49.382;11.358;2023-12-20T04:12:24;96422.25;;;2.64;100.00
68197;BME280;55019;49.382;11.358;2023-12-20T04:14:50;96410.97;;;2.67;100.00
68197;BME280;55019;49.382;11.358;2023-12-20T04:17:16;96412.84;;;2.65;100.00
68197;BME280;55019;49.382;11.358;2023-12-20T04:19:42;96423.28;;;2.62;100.00
68197;BME280;55019;49.382;11.358;2023-12-20T04:22:08;96430.94;;;2.62;100.00
68197;BME280;55019;49.382;11.358;2023-12-20T04:24:34;96427.22;;;2.55;100.00
68197;BME280;55019;49.382;11.358;2023-12-20T04:27:01;96417.84;;;2.55;100.00
68197;BME280;55019;49.382;11.358;2023-12-20T04:29:26;96418.16;;;2.62;100.00
68197;BME280;55019;49.382;11.358;2023-12-20T04:31:52;96412.50;;;2.58;100.00
68197;BME280;55019;49.382;11.358;2023-12-20T04:34:18;96415.16;;;2.57;100.00
68197;BME280;55019;49.382;11.358;2023-12-20T04:36:44;96423.03;;;2.65;100.00
68197;BME280;55019;49.382;11.358;2023-12-20T04:39:12;96419.00;;;2.62;100.00
68197;BME280;55019;49.382;11.358;2023-12-20T04:41:38;96415.88;;;2.59;100.00
68197;BME280;55019;49.382;11.358;2023-12-20T04:44:04;96419.56;;;2.66;100.00
68197;BME280;55019;49.382;11.358;2023-12-20T04:46:30;96417.94;;;2.65;100.00
68197;BME280;55019;49.382;11.358;2023-12-20T04:48:55;96412.13;;;2.74;100.00
68197;BME280;55019;49.382;11.358;2023-12-20T04:51:21;96420.94;;;2.70;100.00
68197;BME280;55019;49.382;11.358;2023-12-20T04:53:48;96421.19;;;2.67;100.00
68197;BME280;55019;49.382;11.358;2023-12-20T04:56:14;96420.94;;;2.70;100.00
68197;BME280;55019;49.382;11.358;2023-12-20T04:58:40;96412.84;;;2.65;100.00
68197;BME280;55019;49.382;11.358;2023-12-20T05:01:05;96412.72;;;2.66;100.00
68197;BME280;55019;49.382;11.358;2023-12-20T05:03:32;96415.84;;;2.70;100.00
68197;BME280;55019;49.382;11.358;2023-12-20T05:05:58;96422.56;;;2.71;100.00
68197;BME280;55019;49.382;11.358;2023-12-20T05:08:24;96424.66;;;2.66;100.00
68197;BME280;55019;49.382;11.358;2023-12-20T05:10:52;96416.31;;;2.64;100.00
68197;BME280;55019;49.382;11.358;2023-12-20T05:13:19;96419.91;;;2.72;100.00
68197;BME280;55019;49.382;11.358;2023-12-20T05:15:45;96434.16;;;2.64;100.00
68197;BME280;55019;49.382;11.358;2023-12-20T05:18:10;96430.22;;;2.60;100.00
68197;BME280;55019;49.382;11.358;2023-12-20T05:20:36;96437.19;;;2.58;100.00
68197;BME280;55019;49.382;11.358;2023-12-20T05:23:02;96441.59;;;2.56;100.00
68197;BME280;55019;49.382;11.358;2023-12-20T05:25:28;96457.25;;;2.62;100.00
68197;BME280;55019;49.382;11.358;2023-12-20T05:27:54;96454.13;;;2.59;100.00
68197;BME280;55019;49.382;11.358;2023-12-20T05:30:23;96462.22;;;2.64;100.00
68197;BME280;55019;49.382;11.358;2023-12-20T05:32:49;96465.72;;;2.63;100.00
68197;BME280;55019;49.382;11.358;2023-12-20T05:35:15;96463.63;;;2.57;100.00
68197;BME280;55019;49.382;11.358;2023-12-20T05:37:41;96468.94;;;2.65;100.00
68197;BME280;55019;49.382;11.358;2023-12-20T05:40:07;96468.47;;;2.71;100.00
68197;BME280;55019;49.382;11.358;2023-12-20T05:42:36;96468.50;;;2.60;100.00
68197;BME280;55019;49.382;11.358;2023-12-20T05:45:02;96473.13;;;2.66;100.00
68197;BME280;55019;49.382;11.358;2023-12-20T05:47:28;96465.00;;;2.61;100.00
68197;BME280;55019;49.382;11.358;2023-12-20T05:49:54;96463.59;;;2.68;100.00
68197;BME280;55019;49.382;11.358;2023-12-20T05:52:19;96473.56;;;2.71;100.00
68197;BME280;55019;49.382;11.358;2023-12-20T05:54:45;96473.50;;;2.61;100.00
68197;BME280;55019;49.382;11.358;2023-12-20T05:57:11;96484.38;;;2.74;100.00
68197;BME280;55019;49.382;11.358;2023-12-20T05:59:37;96477.75;;;2.61;100.00
68197;BME280;55019;49.382;11.358;2023-12-20T06:02:03;96490.66;;;2.59;100.00
68197;BME280;55019;49.382;11.358;2023-12-20T06:04:30;96492.28;;;2.60;100.00
68197;BME280;55019;49.382;11.358;2023-12-20T06:06:55;96481.47;;;2.57;100.00
68197;BME280;55019;49.382;11.358;2023-12-20T06:09:21;96492.03;;;2.63;100.00
68197;BME280;55019;49.382;11.358;2023-12-20T06:11:47;96486.34;;;2.60;100.00
68197;BME280;55019;49.382;11.358;2023-12-20T06:14:13;96490.41;;;2.62;100.00
68197;BME280;55019;49.382;11.358;2023-12-20T06:16:38;96490.06;;;2.56;100.00
68197;BME280;55019;49.382;11.358;2023-12-20T06:19:04;96480.44;;;2.59;100.00
68197;BME280;55019;49.382;11.358;2023-12-20T06:21:30;96492.38;;;2.59;100.00
68197;BME280;55019;49.382;11.358;2023-12-20T06:23:55;96495.50;;;2.62;100.00
68197;BME280;55019;49.382;11.358;2023-12-20T06:26:21;96501.53;;;2.61;100.00
68197;BME280;55019;49.382;11.358;2023-12-20T06:28:47;96503.50;;;2.58;100.00
68197;BME280;55019;49.382;11.358;2023-12-20T06:31:13;96508.59;;;2.58;100.00
68197;BME280;55019;49.382;11.358;2023-12-20T06:33:38;96511.16;;;2.69;100.00
68197;BME280;55019;49.382;11.358;2023-12-20T06:36:06;96512.69;;;2.60;100.00
68197;BME280;55019;49.382;11.358;2023-12-20T06:38:33;96524.13;;;2.55;100.00
68197;BME280;55019;49.382;11.358;2023-12-20T06:40:59;96522.06;;;2.60;100.00
68197;BME280;55019;49.382;11.358;2023-12-20T06:43:25;96522.88;;;2.60;100.00
68197;BME280;55019;49.382;11.358;2023-12-20T06:45:51;96518.81;;;2.58;100.00
68197;BME280;55019;49.382;11.358;2023-12-20T06:48:16;96521.50;;;2.56;100.00
68197;BME280;55019;49.382;11.358;2023-12-20T06:50:42;96516.03;;;2.50;100.00
68197;BME280;55019;49.382;11.358;2023-12-20T06:53:08;96527.16;;;2.60;100.00
68197;BME280;55019;49.382;11.358;2023-12-20T06:55:35;96532.72;;;2.54;100.00
68197;BME280;55019;49.382;11.358;2023-12-20T06:58:01;96532.03;;;2.63;100.00
68197;BME280;55019;49.382;11.358;2023-12-20T07:00:27;96531.47;;;2.59;100.00
68197;BME280;55019;49.382;11.358;2023-12-20T07:02:53;96523.31;;;2.54;100.00
68197;BME280;55019;49.382;11.358;2023-12-20T07:05:19;96534.69;;;2.61;100.00
68197;BME280;55019;49.382;11.358;2023-12-20T07:07:46;96526.59;;;2.56;100.00
68197;BME280;55019;49.382;11.358;2023-12-20T07:10:13;96525.31;;;2.51;100.00
68197;BME280;55019;49.382;11.358;2023-12-20T07:12:38;96541.75;;;2.47;100.00
68197;BME280;55019;49.382;11.358;2023-12-20T07:15:04;96557.53;;;2.63;100.00
68197;BME280;55019;49.382;11.358;2023-12-20T07:17:32;96561.69;;;2.64;100.00
68197;BME280;55019;49.382;11.358;2023-12-20T07:19:58;96574.47;;;2.64;100.00
68197;BME280;55019;49.382;11.358;2023-12-20T07:22:24;96577.13;;;2.62;100.00
68197;BME280;55019;49.382;11.358;2023-12-20T07:24:50;96590.00;;;2.72;100.00
68197;BME280;55019;49.382;11.358;2023-12-20T07:27:17;96576.91;;;2.65;100.00
68197;BME280;55019;49.382;11.358;2023-12-20T07:29:43;96587.91;;;2.66;100.00
68197;BME280;55019;49.382;11.358;2023-12-20T07:32:09;96595.09;;;2.72;100.00
68197;BME280;55019;49.382;11.358;2023-12-20T07:34:36;96597.53;;;2.73;100.00
68197;BME280;55019;49.382;11.358;2023-12-20T07:37:02;96587.44;;;2.72;100.00
68197;BME280;55019;49.382;11.358;2023-12-20T07:39:27;96592.31;;;2.75;100.00
68197;BME280;55019;49.382;11.358;2023-12-20T07:41:53;96588.59;;;2.78;100.00
68197;BME280;55019;49.382;11.358;2023-12-20T07:44:19;96601.63;;;2.86;100.00
68197;BME280;55019;49.382;11.358;2023-12-20T07:46:44;96598.00;;;2.78;100.00
68197;BME280;55019;49.382;11.358;2023-12-20T07:49:10;96603.56;;;2.83;100.00
68197;BME280;55019;49.382;11.358;2023-12-20T07:51:36;96594.66;;;2.88;100.00
68197;BME280;55019;49.382;11.358;2023-12-20T07:54:02;96598.38;;;2.84;100.00
68197;BME280;55019;49.382;11.358;2023-12-20T07:56:29;96597.91;;;2.90;100.00
68197;BME280;55019;49.382;11.358;2023-12-20T07:58:54;96597.22;;;2.88;100.00
68197;BME280;55019;49.382;11.358;2023-12-20T08:01:20;96616.00;;;2.98;100.00
68197;BME280;55019;49.382;11.358;2023-12-20T08:03:46;96611.69;;;2.99;100.00
68197;BME280;55019;49.382;11.358;2023-12-20T08:06:12;96603.00;;;2.90;100.00
68197;BME280;55019;49.382;11.358;2023-12-20T08:08:37;96609.81;;;3.01;100.00
68197;BME280;55019;49.382;11.358;2023-12-20T08:11:03;96613.22;;;3.01;100.00
68197;BME280;55019;49.382;11.358;2023-12-20T08:13:29;96620.28;;;2.98;100.00
68197;BME280;55019;49.382;11.358;2023-12-20T08:15:55;96594.19;;;2.83;100.00
68197;BME280;55019;49.382;11.358;2023-12-20T08:18:21;96612.16;;;2.93;100.00
68197;BME280;55019;49.382;11.358;2023-12-20T08:20:48;96606.47;;;3.00;100.00
68197;BME280;55019;49.382;11.358;2023-12-20T08:23:15;96609.50;;;2.94;100.00
68197;BME280;55019;49.382;11.358;2023-12-20T08:25:40;96619.59;;;3.07;100.00
68197;BME280;55019;49.382;11.358;2023-12-20T08:28:06;96601.72;;;2.96;100.00
68197;BME280;55019;49.382;11.358;2023-12-20T08:30:32;96620.88;;;3.01;100.00
68197;BME280;55019;49.382;11.358;2023-12-20T08:33:01;96618.31;;;3.12;100.00
68197;BME280;55019;49.382;11.358;2023-12-20T08:35:28;96613.19;;;3.12;100.00
68197;BME280;55019;49.382;11.358;2023-12-20T08:37:53;96617.97;;;3.17;100.00
68197;BME280;55019;49.382;11.358;2023-12-20T08:40:19;96618.31;;;3.12;100.00
68197;BME280;55019;49.382;11.358;2023-12-20T08:42:45;96620.38;;;3.18;100.00
68197;BME280;55019;49.382;11.358;2023-12-20T08:45:11;96610.19;;;3.18;100.00
68197;BME280;55019;49.382;11.358;2023-12-20T08:47:37;96617.59;;;3.10;100.00
68197;BME280;55019;49.382;11.358;2023-12-20T08:50:03;96610.19;;;3.18;100.00
68197;BME280;55019;49.382;11.358;2023-12-20T08:52:29;96609.38;;;3.29;100.00
68197;BME280;55019;49.382;11.358;2023-12-20T08:54:55;96612.25;;;3.24;100.00
68197;BME280;55019;49.382;11.358;2023-12-20T08:57:21;96609.72;;;3.35;100.00
68197;BME280;55019;49.382;11.358;2023-12-20T08:59:47;96603.44;;;3.28;100.00
68197;BME280;55019;49.382;11.358;2023-12-20T09:02:13;96617.38;;;3.35;100.00
68197;BME280;55019;49.382;11.358;2023-12-20T09:04:39;96611.34;;;3.36;100.00
68197;BME280;55019;49.382;11.358;2023-12-20T09:07:05;96620.94;;;3.44;100.00
68197;BME280;55019;49.382;11.358;2023-12-20T09:09:31;96621.31;;;3.39;100.00
68197;BME280;55019;49.382;11.358;2023-12-20T09:11:57;96622.94;;;3.40;100.00
68197;BME280;55019;49.382;11.358;2023-12-20T09:14:23;96621.56;;;3.36;100.00
68197;BME280;55019;49.382;11.358;2023-12-20T09:16:49;96614.09;;;3.44;100.00
68197;BME280;55019;49.382;11.358;2023-12-20T09:19:17;96614.44;;;3.40;100.00
68197;BME280;55019;49.382;11.358;2023-12-20T09:21:43;96609.03;;;3.33;100.00
68197;BME280;55019;49.382;11.358;2023-12-20T09:24:09;96612.81;;;3.39;100.00
68197;BME280;55019;49.382;11.358;2023-12-20T09:26:35;96619.44;;;3.30;100.00
68197;BME280;55019;49.382;11.358;2023-12-20T09:29:00;96607.38;;;3.21;100.00
68197;BME280;55019;49.382;11.358;2023-12-20T09:31:26;96603.44;;;3.28;100.00
68197;BME280;55019;49.382;11.358;2023-12-20T09:33:52;96604.72;;;3.34;100.00
68197;BME280;55019;49.382;11.358;2023-12-20T09:36:18;96604.59;;;3.35;100.00
68197;BME280;55019;49.382;11.358;2023-12-20T09:38:44;96618.25;;;3.56;100.00
68197;BME280;55019;49.382;11.358;2023-12-20T09:41:09;96592.94;;;3.53;100.00
68197;BME280;55019;49.382;11.358;2023-12-20T09:43:37;96612.38;;;3.76;100.00
68197;BME280;55019;49.382;11.358;2023-12-20T09:46:06;96613.56;;;3.72;100.00
68197;BME280;55019;49.382;11.358;2023-12-20T09:48:36;96593.94;;;3.73;100.00
68197;BME280;55019;49.382;11.358;2023-12-20T09:51:02;96614.22;;;3.85;100.00
68197;BME280;55019;49.382;11.358;2023-12-20T09:53:29;96592.31;;;4.03;100.00
68197;BME280;55019;49.382;11.358;2023-12-20T09:56:00;96596.00;;;4.71;100.00
68197;BME280;55019;49.382;11.358;2023-12-20T09:58:27;96597.94;;;5.76;100.00
68197;BME280;55019;49.382;11.358;2023-12-20T10:00:53;96596.50;;;6.21;100.00
68197;BME280;55019;49.382;11.358;2023-12-20T10:03:25;96594.38;;;5.40;100.00
68197;BME280;55019;49.382;11.358;2023-12-20T10:05:54;96598.28;;;5.04;100.00
68197;BME280;55019;49.382;11.358;2023-12-20T10:08:21;96609.16;;;7.07;100.00
68197;BME280;55019;49.382;11.358;2023-12-20T10:10:48;96603.47;;;9.63;100.00
68197;BME280;55019;49.382;11.358;2023-12-20T10:13:15;96597.94;;;12.18;100.00
68197;BME280;55019;49.382;11.358;2023-12-20T10:15:41;96597.63;;;10.90;100.00
68197;BME280;55019;49.382;11.358;2023-12-20T10:18:06;96596.94;;;12.19;100.00
68197;BME280;55019;49.382;11.358;2023-12-20T10:20:32;96599.22;;;9.46;100.00
68197;BME280;55019;49.382;11.358;2023-12-20T10:22:59;96578.97;;;7.89;100.00
68197;BME280;55019;49.382;11.358;2023-12-20T10:25:28;96558.31;;;5.99;100.00
68197;BME280;55019;49.382;11.358;2023-12-20T10:28:12;96577.63;;;5.36;100.00
68197;BME280;55019;49.382;11.358;2023-12-20T10:30:39;96578.03;;;4.92;100.00
68197;BME280;55019;49.382;11.358;2023-12-20T10:33:07;96555.84;;;4.22;100.00
68197;BME280;55019;49.382;11.358;2023-12-20T10:35:38;96565.44;;;4.29;100.00
68197;BME280;55019;49.382;11.358;2023-12-20T10:38:06;96556.81;;;4.30;100.00
68197;BME280;55019;49.382;11.358;2023-12-20T10:40:35;96565.31;;;4.81;100.00
68197;BME280;55019;49.382;11.358;2023-12-20T10:43:03;96573.91;;;4.70;100.00
68197;BME280;55019;49.382;11.358;2023-12-20T10:45:29;96567.66;;;4.93;100.00
68197;BME280;55019;49.382;11.358;2023-12-20T10:47:56;96570.25;;;4.73;100.00
68197;BME280;55019;49.382;11.358;2023-12-20T10:50:22;96554.00;;;4.33;100.00
68197;BME280;55019;49.382;11.358;2023-12-20T10:52:48;96577.00;;;4.44;100.00
68197;BME280;55019;49.382;11.358;2023-12-20T10:55:17;96545.28;;;4.15;100.00
68197;BME280;55019;49.382;11.358;2023-12-20T10:57:49;96545.09;;;4.07;100.00
68197;BME280;55019;49.382;11.358;2023-12-20T11:00:18;96568.66;;;4.31;100.00
68197;BME280;55019;49.382;11.358;2023-12-20T11:02:44;96572.72;;;4.13;100.00
68197;BME280;55019;49.382;11.358;2023-12-20T11:07:52;96570.09;;;4.04;100.00
68197;BME280;55019;49.382;11.358;2023-12-20T11:10:30;96558.06;;;3.95;100.00
68197;BME280;55019;49.382;11.358;2023-12-20T11:13:00;96568.38;;;4.04;100.00
68197;BME280;55019;49.382;11.358;2023-12-20T11:15:36;96561.94;;;3.89;100.00
68197;BME280;55019;49.382;11.358;2023-12-20T11:18:04;96524.88;;;3.63;100.00
68197;BME280;55019;49.382;11.358;2023-12-20T11:20:36;96559.06;;;3.83;100.00
68197;BME280;55019;49.382;11.358;2023-12-20T11:23:04;96536.91;;;3.72;100.00
68197;BME280;55019;49.382;11.358;2023-12-20T11:25:30;96551.09;;;3.65;100.00
68197;BME280;55019;49.382;11.358;2023-12-20T11:28:12;96549.91;;;3.69;100.00
68197;BME280;55019;49.382;11.358;2023-12-20T11:33:13;96545.16;;;3.76;100.00
68197;BME280;55019;49.382;11.358;2023-12-20T11:35:43;96547.13;;;3.72;100.00
68197;BME280;55019;49.382;11.358;2023-12-20T11:38:10;96547.38;;;3.69;100.00
68197;BME280;55019;49.382;11.358;2023-12-20T11:40:37;96535.09;;;3.63;100.00
68197;BME280;55019;49.382;11.358;2023-12-20T11:43:03;96538.53;;;3.73;100.00
68197;BME280;55019;49.382;11.358;2023-12-20T11:45:30;96539.00;;;3.67;100.00
68197;BME280;55019;49.382;11.358;2023-12-20T11:47:58;96532.56;;;3.52;100.00
68197;BME280;55019;49.382;11.358;2023-12-20T11:50:24;96537.63;;;3.63;100.00
68197;BME280;55019;49.382;11.358;2023-12-20T11:52:52;96539.31;;;3.53;100.00
68197;BME280;55019;49.382;11.358;2023-12-20T11:55:20;96535.38;;;3.49;100.00
68197;BME280;55019;49.382;11.358;2023-12-20T11:57:50;96541.28;;;3.50;100.00
68197;BME280;55019;49.382;11.358;2023-12-20T12:00:16;96513.06;;;3.20;100.00
68197;BME280;55019;49.382;11.358;2023-12-20T12:02:43;96542.53;;;3.55;100.00
68197;BME280;55019;49.382;11.358;2023-12-20T12:05:20;96526.97;;;3.58;100.00
68197;BME280;55019;49.382;11.358;2023-12-20T12:07:46;96528.53;;;3.70;100.00
68197;BME280;55019;49.382;11.358;2023-12-20T12:10:12;96527.81;;;3.79;100.00
68197;BME280;55019;49.382;11.358;2023-12-20T12:12:37;96541.84;;;3.85;100.00
68197;BME280;55019;49.382;11.358;2023-12-20T12:15:04;96539.44;;;3.83;100.00
68197;BME280;55019;49.382;11.358;2023-12-20T12:17:30;96540.13;;;3.74;100.00
68197;BME280;55019;49.382;11.358;2023-12-20T12:20:07;96539.91;;;3.77;100.00
68197;BME280;55019;49.382;11.358;2023-12-20T12:22:33;96535.78;;;3.65;100.00
68197;BME280;55019;49.382;11.358;2023-12-20T12:25:09;96523.19;;;3.73;100.00
68197;BME280;55019;49.382;11.358;2023-12-20T12:27:36;96534.22;;;3.74;100.00
68197;BME280;55019;49.382;11.358;2023-12-20T12:30:04;96544.47;;;3.74;100.00
68197;BME280;55019;49.382;11.358;2023-12-20T12:32:32;96527.91;;;3.57;100.00
68197;BME280;55019;49.382;11.358;2023-12-20T12:34:58;96527.09;;;3.57;100.00
68197;BME280;55019;49.382;11.358;2023-12-20T12:37:24;96532.19;;;3.68;100.00
68197;BME280;55019;49.382;11.358;2023-12-20T12:39:50;96531.53;;;3.75;100.00
68197;BME280;55019;49.382;11.358;2023-12-20T12:42:18;96521.31;;;3.75;100.00
68197;BME280;55019;49.382;11.358;2023-12-20T12:44:44;96521.91;;;3.79;100.00
68197;BME280;55019;49.382;11.358;2023-12-20T12:47:10;96514.31;;;3.88;100.00
68197;BME280;55019;49.382;11.358;2023-12-20T12:49:35;96522.22;;;3.85;100.00
68197;BME280;55019;49.382;11.358;2023-12-20T12:52:01;96521.03;;;3.69;100.00